Time;durP1;ratioP1;P1;durP2;ratioP2;P2;SDS_P1;SDS_P2;PMS_P1;PMS_P2;Temp;Humidity;BMP_temperature;BMP_pressure;BME280_temperature;BME280_humidity;BME280_pressure;Samples;Min_cycle;Max_cycle;Signal;HPM_P1;HPM_P2
2021/10/13 00:00:48;;;;;;;2.63;0.65;;;;;;;;;;5004603;28;20639;-61
2021/10/13 00:03:14;;;;;;;1.40;0.60;;;;;;;;;;4998850;28;20028;-59
2021/10/13 00:05:40;;;;;;;5.07;0.80;;;;;;;;;;5022872;28;20036;-59
2021/10/13 00:08:07;;;;;;;4.50;1.20;;;;;;;;;;5016481;28;20102;-60
2021/10/13 00:10:38;;;;;;;6.90;0.90;;;;;;;;;;5004720;28;20404;-60
2021/10/13 00:13:06;;;;;;;3.15;0.88;;;;;;;;;;5015913;28;20481;-58
2021/10/13 00:15:31;;;;;;;7.82;1.52;;;;;;;;;;4991543;28;20025;-60
2021/10/13 00:18:01;;;;;;;2.95;1.10;;;;;;;;;;5032712;28;20056;-58
2021/10/13 00:20:27;;;;;;;5.78;0.95;;;;;;;;;;4994121;28;20029;-60
2021/10/13 00:22:52;;;;;;;5.63;0.77;;;;;;;;;;5029133;28;20472;-58
2021/10/13 00:25:20;;;;;;;1.65;0.90;;;;;;;;;;5031571;28;20032;-58
2021/10/13 00:27:48;;;;;;;4.97;0.73;;;;;;;;;;5016903;28;20140;-59
2021/10/13 00:30:19;;;;;;;3.60;0.75;;;;;;;;;;5017681;28;21134;-60
2021/10/13 00:32:45;;;;;;;0.55;0.55;;;;;;;;;;5020243;28;20044;-59
2021/10/13 00:35:11;;;;;;;8.30;1.33;;;;;;;;;;4998027;28;20025;-59
2021/10/13 00:37:36;;;;;;;2.80;1.13;;;;;;;;;;5014596;28;20106;-59
2021/10/13 00:40:04;;;;;;;7.85;0.98;;;;;;;;;;5013485;28;20052;-59
2021/10/13 00:42:34;;;;;;;2.95;0.65;;;;;;;;;;5032260;28;22044;-59
2021/10/13 00:45:00;;;;;;;2.13;1.02;;;;;;;;;;4999028;28;20045;-59
2021/10/13 00:47:28;;;;;;;1.95;0.57;;;;;;;;;;5030350;28;20090;-59
2021/10/13 00:49:54;;;;;;;2.25;0.63;;;;;;;;;;5016854;28;20849;-59
2021/10/13 00:52:22;;;;;;;7.50;0.60;;;;;;;;;;4998668;28;20059;-59
2021/10/13 00:54:52;;;;;;;4.20;1.00;;;;;;;;;;5014118;28;20036;-59
2021/10/13 00:57:17;;;;;;;1.98;0.70;;;;;;;;;;5031075;28;20124;-59
2021/10/13 00:59:42;;;;;;;1.55;0.90;;;;;;;;;;5015549;28;20036;-59
2021/10/13 01:02:14;;;;;;;3.78;0.73;;;;;;;;;;5015857;28;20499;-58
2021/10/13 01:04:41;;;;;;;7.60;0.85;;;;;;;;;;5017375;28;20080;-59
2021/10/13 01:07:26;;;;;;;7.50;1.10;;;;;;;;;;5031679;28;20172;-58
2021/10/13 01:10:11;;;;;;;4.45;1.02;;;;;;;;;;5033780;28;20043;-59
2021/10/13 01:13:00;;;;;;;4.22;0.63;;;;;;;;;;5015535;28;20044;-59
2021/10/13 01:15:40;;;;;;;5.47;0.95;;;;;;;;;;5032815;28;20021;-59
2021/10/13 01:18:14;;;;;;;1.88;0.82;;;;;;;;;;5014320;28;20025;-60
2021/10/13 01:20:51;;;;;;;1.35;0.52;;;;;;;;;;5025914;28;20151;-60
2021/10/13 01:23:26;;;;;;;5.30;0.80;;;;;;;;;;5053537;28;20052;-60
2021/10/13 01:25:58;;;;;;;7.40;0.88;;;;;;;;;;5007193;28;20753;-60
2021/10/13 01:28:30;;;;;;;9.50;0.80;;;;;;;;;;5017467;28;20156;-58
2021/10/13 01:31:00;;;;;;;3.08;0.80;;;;;;;;;;5020233;28;20083;-58
2021/10/13 01:33:30;;;;;;;1.92;0.80;;;;;;;;;;5024284;28;20033;-58
2021/10/13 01:36:00;;;;;;;13.80;1.35;;;;;;;;;;5034231;28;20039;-58
2021/10/13 01:38:28;;;;;;;2.80;0.75;;;;;;;;;;5014079;28;20025;-59
2021/10/13 01:40:56;;;;;;;7.55;1.20;;;;;;;;;;5021074;28;20024;-59
2021/10/13 01:43:25;;;;;;;3.03;0.60;;;;;;;;;;5035738;28;20124;-59
2021/10/13 01:45:56;;;;;;;4.53;0.80;;;;;;;;;;5019961;28;20033;-59
2021/10/13 01:48:25;;;;;;;4.22;1.05;;;;;;;;;;5017770;28;20571;-59
2021/10/13 01:50:52;;;;;;;3.22;0.73;;;;;;;;;;5004247;28;20060;-59
2021/10/13 01:53:22;;;;;;;3.17;0.70;;;;;;;;;;5022428;28;20024;-59
2021/10/13 01:55:50;;;;;;;1.92;0.90;;;;;;;;;;5022685;28;20044;-59
2021/10/13 01:58:21;;;;;;;2.90;0.80;;;;;;;;;;5016843;28;20961;-59
2021/10/13 02:00:51;;;;;;;3.83;1.02;;;;;;;;;;5035149;28;20491;-59
2021/10/13 02:03:22;;;;;;;2.35;0.63;;;;;;;;;;5006816;28;20040;-59
2021/10/13 02:05:54;;;;;;;2.70;0.60;;;;;;;;;;5035743;28;20682;-59
2021/10/13 02:08:26;;;;;;;2.88;0.75;;;;;;;;;;5037206;28;20028;-60
2021/10/13 02:10:55;;;;;;;5.43;1.10;;;;;;;;;;5035862;28;20063;-60
2021/10/13 02:13:25;;;;;;;0.90;0.68;;;;;;;;;;5034798;28;20167;-60
2021/10/13 02:15:54;;;;;;;4.57;0.70;;;;;;;;;;5018221;28;20468;-60
2021/10/13 02:18:24;;;;;;;1.77;0.73;;;;;;;;;;5018897;28;20017;-60
2021/10/13 02:20:53;;;;;;;2.90;0.80;;;;;;;;;;5032822;28;20124;-60
2021/10/13 02:23:20;;;;;;;3.72;0.82;;;;;;;;;;5019237;28;20025;-60
2021/10/13 02:25:51;;;;;;;2.28;0.70;;;;;;;;;;5014640;28;20029;-60
2021/10/13 02:28:24;;;;;;;2.17;0.63;;;;;;;;;;5008509;28;20376;-60
2021/10/13 02:30:50;;;;;;;5.22;0.70;;;;;;;;;;5034918;28;20487;-60
2021/10/13 02:33:15;;;;;;;3.25;0.88;;;;;;;;;;5024497;28;22316;-60
2021/10/13 02:35:43;;;;;;;5.03;1.23;;;;;;;;;;5036499;28;20395;-60
2021/10/13 02:38:11;;;;;;;2.40;0.70;;;;;;;;;;5019394;28;20028;-62
2021/10/13 02:40:41;;;;;;;8.40;1.40;;;;;;;;;;5019347;28;20041;-59
2021/10/13 02:43:08;;;;;;;3.13;0.55;;;;;;;;;;5021306;28;20040;-59
2021/10/13 02:45:37;;;;;;;2.92;0.50;;;;;;;;;;5006667;28;20053;-60
2021/10/13 02:48:19;;;;;;;3.08;0.73;;;;;;;;;;5017199;28;20025;-60
2021/10/13 02:50:49;;;;;;;3.67;0.85;;;;;;;;;;5052319;28;20052;-60
2021/10/13 02:53:23;;;;;;;2.30;0.68;;;;;;;;;;5037198;28;20033;-60
2021/10/13 02:55:54;;;;;;;4.18;0.52;;;;;;;;;;5050597;28;20515;-60
2021/10/13 02:58:27;;;;;;;2.78;1.05;;;;;;;;;;5009573;28;20033;-61
2021/10/13 03:00:53;;;;;;;9.43;0.80;;;;;;;;;;5034019;28;20033;-60
2021/10/13 03:03:23;;;;;;;14.15;1.10;;;;;;;;;;5036934;28;20035;-59
2021/10/13 03:05:49;;;;;;;2.65;0.82;;;;;;;;;;5005374;28;21017;-60
2021/10/13 03:08:17;;;;;;;11.10;1.05;;;;;;;;;;5033211;28;20054;-59
2021/10/13 03:10:46;;;;;;;7.82;0.75;;;;;;;;;;5017802;28;20453;-59
2021/10/13 03:13:13;;;;;;;4.95;0.98;;;;;;;;;;5037441;28;20048;-59
2021/10/13 03:15:42;;;;;;;7.05;1.63;;;;;;;;;;5037169;28;20017;-59
2021/10/13 03:18:10;;;;;;;5.35;0.50;;;;;;;;;;5035448;28;20033;-59
2021/10/13 03:20:36;;;;;;;5.32;0.98;;;;;;;;;;5034410;28;20052;-59
2021/10/13 03:23:05;;;;;;;8.25;1.15;;;;;;;;;;5004877;28;20155;-60
2021/10/13 03:25:32;;;;;;;3.90;0.77;;;;;;;;;;5019438;28;20818;-60
2021/10/13 03:28:01;;;;;;;6.85;0.75;;;;;;;;;;5024620;28;20028;-59
2021/10/13 03:30:29;;;;;;;6.25;0.63;;;;;;;;;;5017208;28;20059;-59
2021/10/13 03:32:55;;;;;;;1.88;0.63;;;;;;;;;;5032755;28;20100;-60
2021/10/13 03:35:25;;;;;;;0.90;0.43;;;;;;;;;;5032596;28;20021;-60
2021/10/13 03:37:53;;;;;;;4.47;1.20;;;;;;;;;;5033761;28;20029;-59
2021/10/13 03:40:19;;;;;;;2.95;0.65;;;;;;;;;;5034557;28;20036;-60
2021/10/13 03:42:44;;;;;;;13.85;0.77;;;;;;;;;;5018689;28;20118;-61
2021/10/13 03:45:14;;;;;;;7.78;0.60;;;;;;;;;;5018325;28;20118;-60
2021/10/13 03:47:39;;;;;;;12.38;1.20;;;;;;;;;;5016480;28;20039;-66
2021/10/13 03:50:07;;;;;;;8.50;1.05;;;;;;;;;;5015652;28;20391;-60
2021/10/13 03:52:35;;;;;;;2.30;0.65;;;;;;;;;;5032361;28;20752;-60
2021/10/13 03:55:00;;;;;;;3.13;0.70;;;;;;;;;;5034148;28;20032;-60
2021/10/13 03:57:26;;;;;;;11.05;1.40;;;;;;;;;;5017786;28;20590;-60
2021/10/13 03:59:51;;;;;;;6.30;0.80;;;;;;;;;;5023276;28;20090;-60
2021/10/13 04:02:19;;;;;;;6.03;0.80;;;;;;;;;;5016525;28;20029;-60
2021/10/13 04:04:46;;;;;;;1.98;0.98;;;;;;;;;;5019311;28;20620;-60
2021/10/13 04:07:14;;;;;;;1.58;0.68;;;;;;;;;;5030805;28;20610;-60
2021/10/13 04:09:40;;;;;;;4.38;0.50;;;;;;;;;;5004936;28;20130;-60
2021/10/13 04:12:07;;;;;;;2.28;0.60;;;;;;;;;;5015936;28;20064;-60
2021/10/13 04:14:33;;;;;;;5.30;0.90;;;;;;;;;;5001053;28;20182;-60
2021/10/13 04:16:58;;;;;;;6.53;1.30;;;;;;;;;;5015945;28;20050;-60
2021/10/13 04:19:26;;;;;;;15.95;1.25;;;;;;;;;;5000936;28;20024;-60
2021/10/13 04:21:54;;;;;;;3.38;0.77;;;;;;;;;;5015018;28;20033;-57
2021/10/13 04:24:19;;;;;;;8.75;0.77;;;;;;;;;;5032689;28;20029;-57
2021/10/13 04:26:47;;;;;;;2.03;0.80;;;;;;;;;;5018053;28;21904;-59
2021/10/13 04:29:15;;;;;;;1.50;0.70;;;;;;;;;;5014908;28;20033;-58
2021/10/13 04:31:41;;;;;;;3.60;0.80;;;;;;;;;;5016611;28;20074;-58
2021/10/13 04:34:08;;;;;;;1.63;0.55;;;;;;;;;;5023023;28;20155;-58
2021/10/13 04:36:34;;;;;;;3.10;0.60;;;;;;;;;;5016635;28;20021;-58
2021/10/13 04:38:59;;;;;;;8.38;0.80;;;;;;;;;;5034213;28;20805;-58
2021/10/13 04:41:27;;;;;;;3.60;1.27;;;;;;;;;;5014666;28;20033;-58
2021/10/13 04:43:54;;;;;;;2.15;0.57;;;;;;;;;;5021382;28;20047;-58
2021/10/13 04:46:22;;;;;;;2.72;0.60;;;;;;;;;;5034319;28;20027;-58
2021/10/13 04:48:50;;;;;;;5.93;0.70;;;;;;;;;;5008027;28;20064;-58
2021/10/13 04:51:15;;;;;;;0.85;0.30;;;;;;;;;;5016605;28;20052;-58
2021/10/13 04:53:41;;;;;;;4.40;1.02;;;;;;;;;;5036038;28;20029;-58
2021/10/13 04:56:06;;;;;;;1.50;0.32;;;;;;;;;;5006540;28;20037;-58
2021/10/13 04:58:34;;;;;;;1.13;0.60;;;;;;;;;;5033069;28;20129;-58
2021/10/13 05:00:59;;;;;;;7.25;0.82;;;;;;;;;;5004851;28;20102;-58
2021/10/13 05:03:27;;;;;;;9.23;1.25;;;;;;;;;;5017766;28;20036;-58
2021/10/13 05:05:53;;;;;;;3.75;0.80;;;;;;;;;;5012193;28;20154;-58
2021/10/13 05:08:21;;;;;;;3.47;0.80;;;;;;;;;;5022453;28;20033;-58
2021/10/13 05:10:51;;;;;;;8.18;0.95;;;;;;;;;;5033207;28;20029;-58
2021/10/13 05:13:19;;;;;;;2.88;0.77;;;;;;;;;;5030735;28;20079;-58
2021/10/13 05:15:45;;;;;;;2.70;0.85;;;;;;;;;;5014354;28;20828;-58
2021/10/13 05:18:11;;;;;;;3.38;1.05;;;;;;;;;;5032246;28;20040;-58
2021/10/13 05:20:37;;;;;;;7.72;1.70;;;;;;;;;;5023731;28;20040;-58
2021/10/13 05:23:04;;;;;;;5.78;1.05;;;;;;;;;;5048740;28;20029;-58
2021/10/13 05:25:29;;;;;;;4.03;1.33;;;;;;;;;;5033132;28;20686;-58
2021/10/13 05:27:55;;;;;;;5.35;0.82;;;;;;;;;;5017293;28;20127;-58
2021/10/13 05:30:20;;;;;;;3.95;1.08;;;;;;;;;;5016701;28;20102;-59
2021/10/13 05:32:48;;;;;;;7.18;1.33;;;;;;;;;;5015565;28;20021;-59
2021/10/13 05:35:14;;;;;;;8.07;0.95;;;;;;;;;;5015914;28;20558;-60
2021/10/13 05:37:44;;;;;;;10.55;1.15;;;;;;;;;;5016174;28;20033;-59
2021/10/13 05:40:12;;;;;;;3.90;1.58;;;;;;;;;;5016681;28;20083;-59
2021/10/13 05:42:38;;;;;;;6.97;1.30;;;;;;;;;;5019199;28;20728;-59
2021/10/13 05:45:04;;;;;;;1.90;1.02;;;;;;;;;;5030561;28;20136;-59
2021/10/13 05:47:30;;;;;;;14.40;1.45;;;;;;;;;;5019355;28;20066;-59
2021/10/13 05:50:00;;;;;;;3.17;1.10;;;;;;;;;;5000086;28;20033;-59
2021/10/13 05:52:28;;;;;;;2.55;1.15;;;;;;;;;;5004507;28;20160;-59
2021/10/13 05:54:53;;;;;;;9.98;1.30;;;;;;;;;;4999788;28;20437;-59
2021/10/13 05:57:24;;;;;;;4.90;1.33;;;;;;;;;;5015631;28;20052;-59
2021/10/13 05:59:59;;;;;;;3.85;1.00;;;;;;;;;;5033477;28;20025;-59
2021/10/13 06:02:25;;;;;;;14.15;0.80;;;;;;;;;;5015818;28;20033;-60
2021/10/13 06:04:50;;;;;;;7.53;1.00;;;;;;;;;;5033528;28;20036;-58
2021/10/13 06:07:18;;;;;;;4.63;0.90;;;;;;;;;;5002612;28;20160;-59
2021/10/13 06:09:47;;;;;;;7.38;1.10;;;;;;;;;;5036298;28;20021;-60
2021/10/13 06:12:14;;;;;;;2.25;1.05;;;;;;;;;;5017827;28;20037;-60
2021/10/13 06:14:42;;;;;;;5.57;0.70;;;;;;;;;;5020728;28;20094;-58
2021/10/13 06:17:10;;;;;;;7.25;1.27;;;;;;;;;;5000816;28;20037;-59
2021/10/13 06:19:38;;;;;;;4.90;1.02;;;;;;;;;;5003145;28;20692;-59
2021/10/13 06:22:06;;;;;;;4.60;1.20;;;;;;;;;;5017896;28;20037;-59
2021/10/13 06:24:34;;;;;;;4.00;0.90;;;;;;;;;;5008419;28;20087;-59
2021/10/13 06:27:02;;;;;;;6.03;0.98;;;;;;;;;;5034923;28;20166;-60
2021/10/13 06:29:30;;;;;;;5.53;0.88;;;;;;;;;;5001446;28;20468;-60
2021/10/13 06:31:58;;;;;;;8.90;1.17;;;;;;;;;;5017934;28;20078;-59
2021/10/13 06:34:26;;;;;;;1.88;0.52;;;;;;;;;;4992136;28;20037;-61
2021/10/13 06:36:59;;;;;;;7.18;1.40;;;;;;;;;;5034522;28;20059;-60
2021/10/13 06:39:24;;;;;;;5.10;1.13;;;;;;;;;;5019720;28;20623;-60
2021/10/13 06:41:50;;;;;;;3.78;1.00;;;;;;;;;;4993340;28;20029;-60
2021/10/13 06:44:17;;;;;;;10.23;1.00;;;;;;;;;;5014208;28;20052;-59
2021/10/13 06:46:49;;;;;;;7.70;1.40;;;;;;;;;;5033739;28;20035;-60
2021/10/13 06:49:17;;;;;;;11.43;0.85;;;;;;;;;;5001096;28;20160;-61
2021/10/13 06:52:12;;;;;;;4.70;0.93;;;;;;;;;;5018237;28;20060;-60
2021/10/13 06:54:40;;;;;;;4.32;0.82;;;;;;;;;;5007472;28;20147;-60
2021/10/13 06:57:07;;;;;;;7.18;1.10;;;;;;;;;;5031212;28;22150;-60
2021/10/13 06:59:33;;;;;;;1.33;0.77;;;;;;;;;;5000743;28;20040;-60
2021/10/13 07:01:58;;;;;;;1.50;0.93;;;;;;;;;;5023788;28;20566;-59
2021/10/13 07:04:24;;;;;;;5.88;0.98;;;;;;;;;;5034237;28;20033;-60
2021/10/13 07:07:07;;;;;;;2.95;0.90;;;;;;;;;;5005689;28;20025;-60
2021/10/13 07:09:36;;;;;;;3.25;0.63;;;;;;;;;;5035142;28;20037;-59
2021/10/13 07:12:06;;;;;;;2.50;0.80;;;;;;;;;;5036913;28;20385;-59
2021/10/13 07:14:34;;;;;;;3.10;0.70;;;;;;;;;;5035791;28;20857;-61
2021/10/13 07:17:00;;;;;;;8.07;1.13;;;;;;;;;;5033830;28;20025;-61
2021/10/13 07:19:26;;;;;;;3.45;0.75;;;;;;;;;;5030306;28;20036;-61
2021/10/13 07:21:52;;;;;;;8.40;0.80;;;;;;;;;;5033953;28;20040;-61
2021/10/13 07:24:20;;;;;;;8.05;0.63;;;;;;;;;;5012750;28;20123;-61
2021/10/13 07:26:48;;;;;;;5.05;0.40;;;;;;;;;;5018053;28;20713;-61
2021/10/13 07:29:14;;;;;;;3.22;0.90;;;;;;;;;;5031944;28;20041;-62
2021/10/13 07:31:42;;;;;;;3.60;0.68;;;;;;;;;;5035131;28;20040;-61
2021/10/13 07:34:12;;;;;;;6.70;0.95;;;;;;;;;;5020914;28;20045;-61
2021/10/13 07:36:38;;;;;;;4.43;0.40;;;;;;;;;;5017285;28;20028;-62
2021/10/13 07:39:09;;;;;;;7.43;0.88;;;;;;;;;;5033560;28;20036;-61
2021/10/13 07:41:37;;;;;;;3.53;0.60;;;;;;;;;;5022719;28;20041;-60
2021/10/13 07:44:08;;;;;;;5.43;0.68;;;;;;;;;;5016903;28;20025;-61
2021/10/13 07:46:33;;;;;;;3.05;0.90;;;;;;;;;;5033360;28;20400;-61
2021/10/13 07:49:01;;;;;;;4.57;0.68;;;;;;;;;;5030871;28;20036;-61
2021/10/13 07:51:26;;;;;;;2.65;0.38;;;;;;;;;;5013847;28;20913;-61
2021/10/13 07:53:54;;;;;;;4.70;0.70;;;;;;;;;;5016047;28;20024;-61
2021/10/13 07:56:20;;;;;;;4.85;0.50;;;;;;;;;;5020979;28;20036;-60
2021/10/13 07:58:45;;;;;;;3.45;0.65;;;;;;;;;;5017888;28;20032;-60
2021/10/13 08:01:10;;;;;;;2.70;0.40;;;;;;;;;;5015097;28;20032;-61
2021/10/13 08:03:36;;;;;;;4.80;0.52;;;;;;;;;;5015614;28;20044;-60
2021/10/13 08:06:04;;;;;;;7.05;0.57;;;;;;;;;;5017754;28;20082;-60
2021/10/13 08:08:34;;;;;;;3.80;0.40;;;;;;;;;;5015592;28;20699;-60
2021/10/13 08:10:59;;;;;;;4.65;0.88;;;;;;;;;;5031980;28;20062;-58
2021/10/13 08:13:32;;;;;;;3.80;0.50;;;;;;;;;;5005889;28;20064;-57
2021/10/13 08:16:02;;;;;;;1.60;0.63;;;;;;;;;;5017478;28;20029;-58
2021/10/13 08:18:35;;;;;;;3.00;0.50;;;;;;;;;;5016545;28;20029;-58
2021/10/13 08:21:01;;;;;;;1.65;0.35;;;;;;;;;;5018968;28;20465;-58
2021/10/13 08:23:26;;;;;;;0.90;0.32;;;;;;;;;;5014258;28;20029;-58
2021/10/13 08:25:55;;;;;;;5.43;0.60;;;;;;;;;;4998764;28;20029;-58
2021/10/13 08:28:23;;;;;;;5.13;0.45;;;;;;;;;;5031961;28;20549;-58
2021/10/13 08:30:49;;;;;;;8.73;0.57;;;;;;;;;;5033333;28;20031;-58
2021/10/13 08:33:16;;;;;;;0.35;0.17;;;;;;;;;;5031887;28;20028;-58
2021/10/13 08:35:44;;;;;;;2.20;0.50;;;;;;;;;;5016985;28;20035;-58
2021/10/13 08:38:12;;;;;;;0.95;0.25;;;;;;;;;;5032362;28;20100;-58
2021/10/13 08:40:38;;;;;;;2.65;0.45;;;;;;;;;;4999529;28;20797;-58
2021/10/13 08:43:07;;;;;;;0.30;0.30;;;;;;;;;;5032681;28;20036;-58
2021/10/13 08:45:36;;;;;;;2.35;0.35;;;;;;;;;;5013853;28;20899;-59
2021/10/13 08:48:04;;;;;;;3.58;0.45;;;;;;;;;;5018381;28;20476;-59
2021/10/13 08:50:36;;;;;;;3.08;0.38;;;;;;;;;;5032784;28;20029;-58
2021/10/13 08:53:09;;;;;;;1.55;0.30;;;;;;;;;;5031695;28;20043;-59
2021/10/13 08:55:42;;;;;;;4.68;0.38;;;;;;;;;;5032690;28;20646;-58
2021/10/13 08:58:21;;;;;;;3.92;0.65;;;;;;;;;;5021946;28;20025;-59
2021/10/13 09:01:10;;;;;;;1.20;0.20;;;;;;;;;;5035076;28;20032;-60
2021/10/13 09:03:37;;;;;;;2.72;0.35;;;;;;;;;;5030796;28;20078;-59
2021/10/13 09:06:24;;;;;;;4.72;0.28;;;;;;;;;;5031149;28;20923;-60
2021/10/13 09:08:56;;;;;;;1.52;0.28;;;;;;;;;;5015602;28;20035;-60
2021/10/13 09:11:43;;;;;;;5.18;1.05;;;;;;;;;;5015367;28;20037;-59
2021/10/13 09:14:11;;;;;;;2.58;0.32;;;;;;;;;;5017214;28;20059;-60
2021/10/13 09:16:50;;;;;;;1.42;0.30;;;;;;;;;;5015977;28;20464;-59
2021/10/13 09:19:19;;;;;;;1.83;0.22;;;;;;;;;;5031453;28;20037;-60
2021/10/13 09:21:54;;;;;;;5.25;0.43;;;;;;;;;;5031749;28;20036;-61
2021/10/13 09:24:20;;;;;;;4.97;0.50;;;;;;;;;;5021340;28;20037;-60
2021/10/13 09:26:51;;;;;;;4.93;0.73;;;;;;;;;;5004589;28;20024;-61
2021/10/13 09:29:19;;;;;;;2.28;0.30;;;;;;;;;;5003495;28;20583;-60
2021/10/13 09:32:11;;;;;;;1.20;0.43;;;;;;;;;;5033694;28;20606;-61
2021/10/13 09:34:45;;;;;;;1.15;0.13;;;;;;;;;;5009505;28;20037;-60
2021/10/13 09:37:11;;;;;;;4.90;0.10;;;;;;;;;;5018037;28;20102;-61
2021/10/13 09:39:37;;;;;;;1.33;0.20;;;;;;;;;;5032524;28;20043;-60
2021/10/13 09:42:02;;;;;;;1.13;0.20;;;;;;;;;;5019997;28;20033;-61
2021/10/13 09:44:29;;;;;;;0.57;0.20;;;;;;;;;;5035776;28;20166;-61
2021/10/13 09:47:18;;;;;;;1.00;0.28;;;;;;;;;;5023818;28;20032;-61
2021/10/13 09:49:45;;;;;;;1.67;0.40;;;;;;;;;;5032017;28;20056;-60
2021/10/13 09:52:15;;;;;;;8.98;1.00;;;;;;;;;;5022425;28;20843;-60
2021/10/13 09:54:45;;;;;;;5.35;0.73;;;;;;;;;;5035449;28;20579;-60
2021/10/13 09:57:17;;;;;;;4.60;0.45;;;;;;;;;;5018888;28;20029;-60
2021/10/13 09:59:58;;;;;;;2.10;0.38;;;;;;;;;;5037351;28;20033;-60
2021/10/13 10:02:25;;;;;;;5.20;0.70;;;;;;;;;;5033303;28;20044;-60
2021/10/13 10:04:53;;;;;;;0.40;0.20;;;;;;;;;;5023548;28;20037;-60
2021/10/13 10:07:23;;;;;;;2.60;0.60;;;;;;;;;;5017192;28;20063;-60
2021/10/13 10:10:30;;;;;;;3.15;0.60;;;;;;;;;;5035833;28;20044;-60
2021/10/13 10:12:58;;;;;;;1.30;0.28;;;;;;;;;;5031421;28;20037;-60
2021/10/13 10:15:32;;;;;;;2.05;0.40;;;;;;;;;;5033792;28;20048;-60
2021/10/13 10:18:03;;;;;;;2.30;0.60;;;;;;;;;;5025006;28;20123;-61
2021/10/13 10:20:38;;;;;;;2.47;0.57;;;;;;;;;;5018192;28;20056;-61
2021/10/13 10:23:26;;;;;;;1.55;0.30;;;;;;;;;;5036367;28;20041;-60
2021/10/13 10:25:55;;;;;;;1.20;0.20;;;;;;;;;;5022033;28;20327;-60
2021/10/13 10:28:42;;;;;;;1.50;0.25;;;;;;;;;;5018458;28;20021;-61
2021/10/13 10:31:26;;;;;;;0.82;0.15;;;;;;;;;;5018654;28;20064;-60
2021/10/13 10:34:05;;;;;;;1.55;0.20;;;;;;;;;;5034219;28;20122;-60
2021/10/13 10:36:33;;;;;;;1.23;0.20;;;;;;;;;;5038748;28;20029;-61
2021/10/13 10:39:00;;;;;;;1.73;0.20;;;;;;;;;;5036230;28;20032;-61
2021/10/13 10:41:44;;;;;;;0.10;0.10;;;;;;;;;;5018862;28;20144;-61
2021/10/13 10:44:28;;;;;;;2.65;0.38;;;;;;;;;;5021281;28;20115;-61
2021/10/13 10:47:08;;;;;;;0.10;0.10;;;;;;;;;;5018902;28;20029;-61
2021/10/13 10:49:43;;;;;;;0.55;0.22;;;;;;;;;;5032632;28;20086;-61
2021/10/13 10:52:11;;;;;;;1.10;0.55;;;;;;;;;;5016047;28;20484;-61
2021/10/13 10:54:39;;;;;;;0.70;0.20;;;;;;;;;;5017739;28;20079;-60
2021/10/13 10:57:26;;;;;;;1.95;0.15;;;;;;;;;;5034556;28;20033;-60
2021/10/13 10:59:57;;;;;;;0.90;0.40;;;;;;;;;;5035924;28;20126;-60
2021/10/13 11:02:27;;;;;;;2.65;0.30;;;;;;;;;;5019178;28;20555;-60
2021/10/13 11:05:01;;;;;;;3.05;0.60;;;;;;;;;;5016652;28;20040;-61
2021/10/13 11:07:30;;;;;;;2.25;0.40;;;;;;;;;;5018258;28;20519;-60
2021/10/13 11:10:10;;;;;;;0.65;0.40;;;;;;;;;;5017326;28;20033;-61
2021/10/13 11:12:52;;;;;;;5.05;0.20;;;;;;;;;;5033177;28;20083;-61
2021/10/13 11:15:22;;;;;;;3.97;0.50;;;;;;;;;;5018751;28;20140;-61
2021/10/13 11:17:47;;;;;;;4.72;0.28;;;;;;;;;;5007289;28;20047;-61
2021/10/13 11:20:16;;;;;;;2.90;0.52;;;;;;;;;;5019071;28;20037;-61
2021/10/13 11:22:44;;;;;;;3.47;0.35;;;;;;;;;;5016138;28;20039;-60
2021/10/13 11:25:13;;;;;;;1.23;0.38;;;;;;;;;;5007845;28;20028;-60
2021/10/13 11:27:38;;;;;;;3.38;0.68;;;;;;;;;;5004240;28;20598;-61
2021/10/13 11:30:14;;;;;;;2.15;0.50;;;;;;;;;;5034782;28;20560;-61
2021/10/13 11:32:40;;;;;;;5.63;0.20;;;;;;;;;;5034415;28;20129;-61
2021/10/13 11:35:06;;;;;;;3.58;0.70;;;;;;;;;;5035224;28;20029;-61
2021/10/13 11:37:31;;;;;;;2.20;0.50;;;;;;;;;;5017103;28;20071;-61
2021/10/13 11:39:57;;;;;;;1.10;0.22;;;;;;;;;;5018775;28;20029;-61
2021/10/13 11:42:25;;;;;;;3.10;0.68;;;;;;;;;;5032909;28;20028;-62
2021/10/13 11:44:55;;;;;;;2.72;0.30;;;;;;;;;;5005901;28;20037;-61
2021/10/13 11:47:32;;;;;;;2.15;0.50;;;;;;;;;;5035474;28;20052;-61
2021/10/13 11:50:04;;;;;;;3.55;0.60;;;;;;;;;;5035489;28;20041;-61
2021/10/13 11:52:30;;;;;;;2.35;0.30;;;;;;;;;;5032334;28;20045;-62
2021/10/13 11:55:04;;;;;;;3.05;0.50;;;;;;;;;;5036136;28;20059;-61
2021/10/13 11:57:34;;;;;;;1.33;0.40;;;;;;;;;;5033299;28;20035;-62
2021/10/13 12:00:15;;;;;;;3.63;0.52;;;;;;;;;;5033546;28;20029;-62
2021/10/13 12:02:58;;;;;;;4.95;0.68;;;;;;;;;;5033887;28;20040;-62
2021/10/13 12:05:36;;;;;;;7.75;0.32;;;;;;;;;;5032661;28;20106;-62
2021/10/13 12:08:24;;;;;;;6.20;1.00;;;;;;;;;;5015779;28;20044;-62
2021/10/13 12:10:56;;;;;;;5.30;0.80;;;;;;;;;;4997131;28;20100;-62
2021/10/13 12:13:28;;;;;;;4.88;0.60;;;;;;;;;;5030629;28;20044;-61
2021/10/13 12:15:57;;;;;;;3.50;0.40;;;;;;;;;;5033913;28;20023;-61
2021/10/13 12:18:24;;;;;;;2.22;0.63;;;;;;;;;;5033992;28;20415;-61
2021/10/13 12:21:01;;;;;;;1.83;0.38;;;;;;;;;;5034774;28;20032;-61
2021/10/13 12:23:26;;;;;;;3.25;0.55;;;;;;;;;;5033263;28;20033;-60
2021/10/13 12:25:53;;;;;;;4.85;0.70;;;;;;;;;;5033714;28;20025;-61
2021/10/13 12:28:45;;;;;;;4.38;0.50;;;;;;;;;;5034769;28;20057;-61
2021/10/13 12:31:15;;;;;;;5.70;0.85;;;;;;;;;;5025710;28;20067;-60
2021/10/13 12:33:45;;;;;;;5.40;0.60;;;;;;;;;;5020969;28;20047;-61
2021/10/13 12:36:12;;;;;;;5.45;1.05;;;;;;;;;;5049710;28;20029;-60
2021/10/13 12:38:41;;;;;;;5.43;0.80;;;;;;;;;;5032972;28;20032;-60
2021/10/13 12:41:06;;;;;;;6.45;1.00;;;;;;;;;;5017142;28;21759;-61
2021/10/13 12:43:38;;;;;;;5.93;0.70;;;;;;;;;;5033808;28;20039;-58
2021/10/13 12:46:17;;;;;;;6.65;0.85;;;;;;;;;;5033480;28;20029;-61
2021/10/13 12:48:42;;;;;;;8.50;0.80;;;;;;;;;;5032238;28;20037;-61
2021/10/13 12:51:08;;;;;;;9.45;1.23;;;;;;;;;;5012979;28;20051;-61
2021/10/13 12:53:35;;;;;;;4.00;0.85;;;;;;;;;;5035583;28;20579;-61
2021/10/13 12:56:04;;;;;;;6.13;1.10;;;;;;;;;;5032901;28;20024;-60
2021/10/13 12:58:34;;;;;;;4.53;0.60;;;;;;;;;;5016645;28;20126;-61
2021/10/13 13:01:00;;;;;;;4.82;0.45;;;;;;;;;;5006002;28;20043;-59
2021/10/13 13:03:25;;;;;;;4.07;0.90;;;;;;;;;;4998754;28;20029;-60
2021/10/13 13:05:52;;;;;;;5.20;1.13;;;;;;;;;;5019098;28;20887;-61
2021/10/13 13:08:20;;;;;;;6.82;0.90;;;;;;;;;;5035188;28;20071;-61
2021/10/13 13:10:47;;;;;;;6.28;1.08;;;;;;;;;;5032172;28;20033;-61
2021/10/13 13:13:16;;;;;;;7.93;0.85;;;;;;;;;;5015488;28;20052;-61
2021/10/13 13:15:42;;;;;;;9.52;0.90;;;;;;;;;;5036166;28;20151;-61
2021/10/13 13:18:11;;;;;;;5.40;1.50;;;;;;;;;;5004597;28;20058;-61
2021/10/13 13:20:38;;;;;;;9.60;0.70;;;;;;;;;;5014910;28;20039;-61
2021/10/13 13:23:07;;;;;;;7.22;0.90;;;;;;;;;;5030863;28;20040;-59
2021/10/13 13:25:33;;;;;;;4.72;0.57;;;;;;;;;;5019325;28;22020;-61
2021/10/13 13:27:59;;;;;;;6.85;1.15;;;;;;;;;;5047479;28;20036;-62
2021/10/13 13:34:02;;;;;;;5.75;0.70;;;;;;;;;;5034769;28;20132;-60
2021/10/13 13:36:30;;;;;;;2.38;0.65;;;;;;;;;;4999832;28;20041;-61
2021/10/13 13:38:56;;;;;;;5.57;0.65;;;;;;;;;;5004135;28;20083;-61
2021/10/13 13:41:24;;;;;;;7.05;0.85;;;;;;;;;;5017683;28;20033;-61
2021/10/13 13:43:50;;;;;;;7.22;0.70;;;;;;;;;;5031876;28;20039;-60
2021/10/13 13:46:17;;;;;;;4.50;0.73;;;;;;;;;;5031643;28;20033;-62
2021/10/13 13:48:43;;;;;;;9.30;1.30;;;;;;;;;;5030280;28;20376;-61
2021/10/13 13:51:11;;;;;;;3.78;0.65;;;;;;;;;;5015031;28;20044;-61
2021/10/13 13:53:40;;;;;;;4.07;0.73;;;;;;;;;;5030222;28;20028;-62
2021/10/13 13:56:08;;;;;;;6.47;0.95;;;;;;;;;;5027807;28;20033;-62
2021/10/13 13:58:38;;;;;;;9.85;1.10;;;;;;;;;;5014991;28;20078;-63
2021/10/13 14:01:03;;;;;;;4.82;1.02;;;;;;;;;;5030665;28;20029;-62
2021/10/13 14:03:29;;;;;;;7.10;0.70;;;;;;;;;;5034235;28;20174;-58
2021/10/13 14:05:56;;;;;;;7.93;0.80;;;;;;;;;;5000990;28;20036;-62
2021/10/13 14:08:22;;;;;;;7.00;1.27;;;;;;;;;;5032219;28;20047;-62
2021/10/13 14:10:48;;;;;;;4.90;1.10;;;;;;;;;;5020847;28;20055;-61
2021/10/13 14:13:13;;;;;;;6.32;0.95;;;;;;;;;;5030374;28;20037;-61
2021/10/13 14:15:39;;;;;;;8.80;0.90;;;;;;;;;;5000524;28;20106;-61
2021/10/13 14:18:07;;;;;;;4.85;0.98;;;;;;;;;;5030058;28;20033;-61
2021/10/13 14:20:32;;;;;;;9.40;1.02;;;;;;;;;;5000183;28;20138;-61
2021/10/13 14:23:00;;;;;;;4.03;0.90;;;;;;;;;;5006260;28;20068;-61
2021/10/13 14:25:26;;;;;;;8.43;0.80;;;;;;;;;;5011530;28;20785;-61
2021/10/13 14:27:51;;;;;;;4.30;0.90;;;;;;;;;;5000986;28;20044;-59
2021/10/13 14:30:19;;;;;;;9.75;1.20;;;;;;;;;;5035382;28;20043;-61
2021/10/13 14:32:50;;;;;;;7.25;0.57;;;;;;;;;;5036064;28;20500;-62
2021/10/13 14:35:18;;;;;;;4.43;0.60;;;;;;;;;;5016663;28;20033;-62
2021/10/13 14:37:43;;;;;;;8.35;1.42;;;;;;;;;;5013570;28;20557;-62
2021/10/13 14:43:47;;;;;;;3.38;0.38;;;;;;;;;;5033385;28;20055;-62
2021/10/13 14:46:13;;;;;;;4.22;0.70;;;;;;;;;;4999141;28;20037;-61
2021/10/13 14:48:39;;;;;;;3.47;0.80;;;;;;;;;;5013920;28;20106;-61
2021/10/13 14:51:09;;;;;;;2.67;1.05;;;;;;;;;;5013006;28;20051;-61
2021/10/13 14:53:39;;;;;;;3.70;0.98;;;;;;;;;;5028055;28;20037;-61
2021/10/13 14:56:05;;;;;;;3.83;0.68;;;;;;;;;;5002799;28;20086;-61
2021/10/13 14:58:30;;;;;;;6.53;0.98;;;;;;;;;;5015004;28;20063;-62
2021/10/13 15:00:58;;;;;;;3.90;0.60;;;;;;;;;;4992373;28;20036;-61
2021/10/13 15:03:26;;;;;;;1.77;0.70;;;;;;;;;;5027519;28;20120;-61